sensor_id;sensor_type;location;lat;lon;timestamp;temperature;humidity
25280;DHT22;13225;47.804;12.116;2023-03-14T00:01:19;10.80;99.90
25280;DHT22;13225;47.804;12.116;2023-03-14T00:03:45;10.70;99.90
25280;DHT22;13225;47.804;12.116;2023-03-14T00:06:11;10.60;99.90
25280;DHT22;13225;47.804;12.116;2023-03-14T00:08:37;10.50;99.90
25280;DHT22;13225;47.804;12.116;2023-03-14T00:11:18;10.40;99.90
25280;DHT22;13225;47.804;12.116;2023-03-14T00:13:49;10.20;99.90
25280;DHT22;13225;47.804;12.116;2023-03-14T00:16:14;10.10;99.90
25280;DHT22;13225;47.804;12.116;2023-03-14T00:18:40;9.90;99.90
25280;DHT22;13225;47.804;12.116;2023-03-14T00:21:07;9.80;99.90
25280;DHT22;13225;47.804;12.116;2023-03-14T00:23:36;9.70;99.90
25280;DHT22;13225;47.804;12.116;2023-03-14T00:26:07;9.60;99.90
25280;DHT22;13225;47.804;12.116;2023-03-14T00:28:33;9.60;99.90
25280;DHT22;13225;47.804;12.116;2023-03-14T00:30:59;9.60;99.90
25280;DHT22;13225;47.804;12.116;2023-03-14T00:33:24;9.70;99.90
25280;DHT22;13225;47.804;12.116;2023-03-14T00:35:58;9.70;99.90
25280;DHT22;13225;47.804;12.116;2023-03-14T00:38:24;9.70;99.90
25280;DHT22;13225;47.804;12.116;2023-03-14T00:40:53;9.70;99.90
25280;DHT22;13225;47.804;12.116;2023-03-14T00:43:20;9.80;99.90
25280;DHT22;13225;47.804;12.116;2023-03-14T00:45:50;9.80;99.90
25280;DHT22;13225;47.804;12.116;2023-03-14T00:48:16;9.80;99.90
25280;DHT22;13225;47.804;12.116;2023-03-14T00:50:41;9.80;99.90
25280;DHT22;13225;47.804;12.116;2023-03-14T00:53:07;9.80;99.90
25280;DHT22;13225;47.804;12.116;2023-03-14T00:55:37;9.70;99.90
25280;DHT22;13225;47.804;12.116;2023-03-14T00:58:02;9.60;99.90
25280;DHT22;13225;47.804;12.116;2023-03-14T01:00:28;9.50;99.90
25280;DHT22;13225;47.804;12.116;2023-03-14T01:02:54;9.60;99.90
25280;DHT22;13225;47.804;12.116;2023-03-14T01:05:21;9.50;99.90
25280;DHT22;13225;47.804;12.116;2023-03-14T01:07:46;9.40;99.90
25280;DHT22;13225;47.804;12.116;2023-03-14T01:10:12;9.30;99.90
25280;DHT22;13225;47.804;12.116;2023-03-14T01:12:37;9.30;99.90
25280;DHT22;13225;47.804;12.116;2023-03-14T01:15:03;9.20;99.90
25280;DHT22;13225;47.804;12.116;2023-03-14T01:17:29;9.20;99.90
25280;DHT22;13225;47.804;12.116;2023-03-14T01:19:55;9.20;99.90
25280;DHT22;13225;47.804;12.116;2023-03-14T01:22:20;9.10;99.90
25280;DHT22;13225;47.804;12.116;2023-03-14T01:24:46;9.00;99.90
25280;DHT22;13225;47.804;12.116;2023-03-14T01:27:13;9.00;99.90
25280;DHT22;13225;47.804;12.116;2023-03-14T01:29:38;9.00;99.90
25280;DHT22;13225;47.804;12.116;2023-03-14T01:32:05;9.00;99.90
25280;DHT22;13225;47.804;12.116;2023-03-14T01:34:30;8.90;99.90
25280;DHT22;13225;47.804;12.116;2023-03-14T01:36:56;8.90;99.90
25280;DHT22;13225;47.804;12.116;2023-03-14T01:39:21;9.00;99.90
25280;DHT22;13225;47.804;12.116;2023-03-14T01:41:47;9.10;99.90
25280;DHT22;13225;47.804;12.116;2023-03-14T01:44:13;9.10;99.90
25280;DHT22;13225;47.804;12.116;2023-03-14T01:46:46;9.10;99.90
25280;DHT22;13225;47.804;12.116;2023-03-14T01:49:22;9.20;99.90
25280;DHT22;13225;47.804;12.116;2023-03-14T01:52:11;9.20;99.90
25280;DHT22;13225;47.804;12.116;2023-03-14T01:54:43;9.10;99.90
25280;DHT22;13225;47.804;12.116;2023-03-14T01:57:22;9.10;99.90
25280;DHT22;13225;47.804;12.116;2023-03-14T01:59:58;9.00;99.90
25280;DHT22;13225;47.804;12.116;2023-03-14T02:02:26;9.00;99.90
25280;DHT22;13225;47.804;12.116;2023-03-14T02:04:53;9.00;99.90
25280;DHT22;13225;47.804;12.116;2023-03-14T02:07:22;9.10;99.90
25280;DHT22;13225;47.804;12.116;2023-03-14T02:09:50;9.00;99.90
25280;DHT22;13225;47.804;12.116;2023-03-14T02:12:17;9.10;99.90
25280;DHT22;13225;47.804;12.116;2023-03-14T02:14:43;9.10;99.90
25280;DHT22;13225;47.804;12.116;2023-03-14T02:17:14;9.30;99.90
25280;DHT22;13225;47.804;12.116;2023-03-14T02:20:48;9.40;99.90
25280;DHT22;13225;47.804;12.116;2023-03-14T02:22:47;9.60;99.90
25280;DHT22;13225;47.804;12.116;2023-03-14T02:28:16;9.80;99.90
25280;DHT22;13225;47.804;12.116;2023-03-14T02:30:42;9.90;99.90
25280;DHT22;13225;47.804;12.116;2023-03-14T02:33:10;9.80;99.90
25280;DHT22;13225;47.804;12.116;2023-03-14T02:36:01;9.60;99.90
25280;DHT22;13225;47.804;12.116;2023-03-14T02:41:08;9.60;99.90
25280;DHT22;13225;47.804;12.116;2023-03-14T02:43:33;9.70;99.90
25280;DHT22;13225;47.804;12.116;2023-03-14T02:46:00;9.70;99.90
25280;DHT22;13225;47.804;12.116;2023-03-14T02:48:31;9.60;99.90
25280;DHT22;13225;47.804;12.116;2023-03-14T02:51:00;9.30;99.90
25280;DHT22;13225;47.804;12.116;2023-03-14T02:53:32;9.20;99.90
25280;DHT22;13225;47.804;12.116;2023-03-14T02:55:58;9.10;99.90
25280;DHT22;13225;47.804;12.116;2023-03-14T02:58:24;9.10;99.90
25280;DHT22;13225;47.804;12.116;2023-03-14T03:00:49;9.00;99.90
25280;DHT22;13225;47.804;12.116;2023-03-14T03:03:16;9.00;99.90
25280;DHT22;13225;47.804;12.116;2023-03-14T03:05:41;8.90;99.90
25280;DHT22;13225;47.804;12.116;2023-03-14T03:08:10;8.90;99.90
25280;DHT22;13225;47.804;12.116;2023-03-14T03:10:36;8.80;99.90
25280;DHT22;13225;47.804;12.116;2023-03-14T03:13:02;8.90;99.90
25280;DHT22;13225;47.804;12.116;2023-03-14T03:15:28;9.00;99.90
25280;DHT22;13225;47.804;12.116;2023-03-14T03:17:53;9.10;99.90
25280;DHT22;13225;47.804;12.116;2023-03-14T03:20:19;9.10;99.90
25280;DHT22;13225;47.804;12.116;2023-03-14T03:22:44;9.20;99.90
25280;DHT22;13225;47.804;12.116;2023-03-14T03:25:10;9.30;99.90
25280;DHT22;13225;47.804;12.116;2023-03-14T03:27:37;9.30;99.90
25280;DHT22;13225;47.804;12.116;2023-03-14T03:30:04;9.20;99.90
25280;DHT22;13225;47.804;12.116;2023-03-14T03:32:30;9.20;99.90
25280;DHT22;13225;47.804;12.116;2023-03-14T03:34:56;9.20;99.90
25280;DHT22;13225;47.804;12.116;2023-03-14T03:37:22;9.20;99.90
25280;DHT22;13225;47.804;12.116;2023-03-14T03:39:50;9.20;99.90
25280;DHT22;13225;47.804;12.116;2023-03-14T03:42:16;9.10;99.90
25280;DHT22;13225;47.804;12.116;2023-03-14T03:44:41;9.20;99.90
25280;DHT22;13225;47.804;12.116;2023-03-14T03:47:07;9.10;99.90
25280;DHT22;13225;47.804;12.116;2023-03-14T03:49:32;9.00;99.90
25280;DHT22;13225;47.804;12.116;2023-03-14T03:51:59;8.90;99.90
25280;DHT22;13225;47.804;12.116;2023-03-14T03:54:25;8.80;99.90
25280;DHT22;13225;47.804;12.116;2023-03-14T03:56:51;8.80;99.90
25280;DHT22;13225;47.804;12.116;2023-03-14T03:59:16;8.70;99.90
25280;DHT22;13225;47.804;12.116;2023-03-14T04:01:42;8.60;99.90
25280;DHT22;13225;47.804;12.116;2023-03-14T04:04:08;8.60;99.90
25280;DHT22;13225;47.804;12.116;2023-03-14T04:06:33;8.60;99.90
25280;DHT22;13225;47.804;12.116;2023-03-14T04:08:59;8.60;99.90
25280;DHT22;13225;47.804;12.116;2023-03-14T04:11:24;8.50;99.90
25280;DHT22;13225;47.804;12.116;2023-03-14T04:13:50;8.50;99.90
25280;DHT22;13225;47.804;12.116;2023-03-14T04:16:23;8.50;99.90
25280;DHT22;13225;47.804;12.116;2023-03-14T04:18:49;8.50;99.90
25280;DHT22;13225;47.804;12.116;2023-03-14T04:21:15;8.50;99.90
25280;DHT22;13225;47.804;12.116;2023-03-14T04:23:40;8.50;99.90
25280;DHT22;13225;47.804;12.116;2023-03-14T04:26:06;8.40;99.90
25280;DHT22;13225;47.804;12.116;2023-03-14T04:28:31;8.40;99.90
25280;DHT22;13225;47.804;12.116;2023-03-14T04:30:57;8.40;99.90
25280;DHT22;13225;47.804;12.116;2023-03-14T04:33:23;8.40;99.90
25280;DHT22;13225;47.804;12.116;2023-03-14T04:35:49;8.40;99.90
25280;DHT22;13225;47.804;12.116;2023-03-14T04:38:17;8.40;99.90
25280;DHT22;13225;47.804;12.116;2023-03-14T04:40:43;8.40;99.90
25280;DHT22;13225;47.804;12.116;2023-03-14T04:43:10;8.40;99.90
25280;DHT22;13225;47.804;12.116;2023-03-14T04:45:36;8.40;99.90
25280;DHT22;13225;47.804;12.116;2023-03-14T04:48:02;8.40;99.90
25280;DHT22;13225;47.804;12.116;2023-03-14T04:50:28;8.40;99.90
25280;DHT22;13225;47.804;12.116;2023-03-14T04:52:53;8.40;99.90
25280;DHT22;13225;47.804;12.116;2023-03-14T04:55:19;8.30;99.90
25280;DHT22;13225;47.804;12.116;2023-03-14T04:57:44;8.30;99.90
25280;DHT22;13225;47.804;12.116;2023-03-14T05:00:11;8.40;99.90
25280;DHT22;13225;47.804;12.116;2023-03-14T05:02:36;8.40;99.90
25280;DHT22;13225;47.804;12.116;2023-03-14T05:05:02;8.40;99.90
25280;DHT22;13225;47.804;12.116;2023-03-14T05:07:28;8.40;99.90
25280;DHT22;13225;47.804;12.116;2023-03-14T05:09:53;8.40;99.90
25280;DHT22;13225;47.804;12.116;2023-03-14T05:12:20;8.40;99.90
25280;DHT22;13225;47.804;12.116;2023-03-14T05:14:45;8.40;99.90
25280;DHT22;13225;47.804;12.116;2023-03-14T05:17:11;8.30;99.90
25280;DHT22;13225;47.804;12.116;2023-03-14T05:19:39;8.30;99.90
25280;DHT22;13225;47.804;12.116;2023-03-14T05:22:06;8.30;99.90
25280;DHT22;13225;47.804;12.116;2023-03-14T05:24:32;8.30;99.90
25280;DHT22;13225;47.804;12.116;2023-03-14T05:26:58;8.30;99.90
25280;DHT22;13225;47.804;12.116;2023-03-14T05:29:24;8.30;99.90
25280;DHT22;13225;47.804;12.116;2023-03-14T05:31:49;8.30;99.90
25280;DHT22;13225;47.804;12.116;2023-03-14T05:34:15;8.40;99.90
25280;DHT22;13225;47.804;12.116;2023-03-14T05:36:40;8.40;99.90
25280;DHT22;13225;47.804;12.116;2023-03-14T05:39:06;8.40;99.90
25280;DHT22;13225;47.804;12.116;2023-03-14T05:41:32;8.30;99.90
25280;DHT22;13225;47.804;12.116;2023-03-14T05:43:57;8.40;99.90
25280;DHT22;13225;47.804;12.116;2023-03-14T05:46:23;8.40;99.90
25280;DHT22;13225;47.804;12.116;2023-03-14T05:48:48;8.40;99.90
25280;DHT22;13225;47.804;12.116;2023-03-14T05:51:14;8.40;99.90
25280;DHT22;13225;47.804;12.116;2023-03-14T05:53:39;8.40;99.90
25280;DHT22;13225;47.804;12.116;2023-03-14T05:56:05;8.40;99.90
25280;DHT22;13225;47.804;12.116;2023-03-14T05:58:31;8.40;99.90
25280;DHT22;13225;47.804;12.116;2023-03-14T06:00:57;8.40;99.90
25280;DHT22;13225;47.804;12.116;2023-03-14T06:03:22;8.40;99.90
25280;DHT22;13225;47.804;12.116;2023-03-14T06:05:51;8.40;99.90
25280;DHT22;13225;47.804;12.116;2023-03-14T06:08:16;8.30;99.90
25280;DHT22;13225;47.804;12.116;2023-03-14T06:10:42;8.30;99.90
25280;DHT22;13225;47.804;12.116;2023-03-14T06:13:07;8.40;99.90
25280;DHT22;13225;47.804;12.116;2023-03-14T06:15:33;8.30;99.90
25280;DHT22;13225;47.804;12.116;2023-03-14T06:18:00;8.30;99.90
25280;DHT22;13225;47.804;12.116;2023-03-14T06:20:26;8.30;99.90
25280;DHT22;13225;47.804;12.116;2023-03-14T06:22:51;8.30;99.90
25280;DHT22;13225;47.804;12.116;2023-03-14T06:25:17;8.40;99.90
25280;DHT22;13225;47.804;12.116;2023-03-14T06:27:43;8.40;99.90
25280;DHT22;13225;47.804;12.116;2023-03-14T06:30:09;8.40;99.90
25280;DHT22;13225;47.804;12.116;2023-03-14T06:32:34;8.50;99.90
25280;DHT22;13225;47.804;12.116;2023-03-14T06:35:00;8.50;99.90
25280;DHT22;13225;47.804;12.116;2023-03-14T06:37:27;8.50;99.90
25280;DHT22;13225;47.804;12.116;2023-03-14T06:39:54;8.50;99.90
25280;DHT22;13225;47.804;12.116;2023-03-14T06:42:19;8.50;99.90
25280;DHT22;13225;47.804;12.116;2023-03-14T06:44:45;8.40;99.90
25280;DHT22;13225;47.804;12.116;2023-03-14T06:47:10;8.50;99.90
25280;DHT22;13225;47.804;12.116;2023-03-14T06:49:36;8.60;99.90
25280;DHT22;13225;47.804;12.116;2023-03-14T06:52:01;8.50;99.90
25280;DHT22;13225;47.804;12.116;2023-03-14T06:54:27;8.50;99.90
25280;DHT22;13225;47.804;12.116;2023-03-14T06:56:53;8.50;99.90
25280;DHT22;13225;47.804;12.116;2023-03-14T06:59:18;8.50;99.90
25280;DHT22;13225;47.804;12.116;2023-03-14T07:01:44;8.50;99.90
25280;DHT22;13225;47.804;12.116;2023-03-14T07:04:10;8.50;99.90
25280;DHT22;13225;47.804;12.116;2023-03-14T07:06:36;8.40;99.90
25280;DHT22;13225;47.804;12.116;2023-03-14T07:09:02;8.50;99.90
25280;DHT22;13225;47.804;12.116;2023-03-14T07:11:28;8.60;99.90
25280;DHT22;13225;47.804;12.116;2023-03-14T07:13:54;8.60;99.90
25280;DHT22;13225;47.804;12.116;2023-03-14T07:16:19;8.50;99.90
25280;DHT22;13225;47.804;12.116;2023-03-14T07:18:45;8.60;99.90
25280;DHT22;13225;47.804;12.116;2023-03-14T07:21:11;8.60;99.90
25280;DHT22;13225;47.804;12.116;2023-03-14T07:23:37;8.50;99.90
25280;DHT22;13225;47.804;12.116;2023-03-14T07:26:03;8.50;99.90
25280;DHT22;13225;47.804;12.116;2023-03-14T07:28:29;8.50;99.90
25280;DHT22;13225;47.804;12.116;2023-03-14T07:30:55;8.50;99.90
25280;DHT22;13225;47.804;12.116;2023-03-14T07:33:21;8.40;99.90
25280;DHT22;13225;47.804;12.116;2023-03-14T07:35:47;8.50;99.90
25280;DHT22;13225;47.804;12.116;2023-03-14T07:38:13;8.50;99.90
25280;DHT22;13225;47.804;12.116;2023-03-14T07:40:39;8.50;99.90
25280;DHT22;13225;47.804;12.116;2023-03-14T07:43:04;8.40;99.90
25280;DHT22;13225;47.804;12.116;2023-03-14T07:45:30;8.40;99.90
25280;DHT22;13225;47.804;12.116;2023-03-14T07:47:55;8.40;99.90
25280;DHT22;13225;47.804;12.116;2023-03-14T07:50:26;8.40;99.90
25280;DHT22;13225;47.804;12.116;2023-03-14T07:52:51;8.30;99.90
25280;DHT22;13225;47.804;12.116;2023-03-14T07:55:17;8.30;99.90
25280;DHT22;13225;47.804;12.116;2023-03-14T07:57:43;8.30;99.90
25280;DHT22;13225;47.804;12.116;2023-03-14T08:00:09;8.20;99.90
25280;DHT22;13225;47.804;12.116;2023-03-14T08:02:35;8.30;99.90
25280;DHT22;13225;47.804;12.116;2023-03-14T08:05:02;8.20;99.90
25280;DHT22;13225;47.804;12.116;2023-03-14T08:07:28;8.20;99.90
25280;DHT22;13225;47.804;12.116;2023-03-14T08:09:53;8.20;99.90
25280;DHT22;13225;47.804;12.116;2023-03-14T08:12:19;8.20;99.90
25280;DHT22;13225;47.804;12.116;2023-03-14T08:14:44;8.20;99.90
25280;DHT22;13225;47.804;12.116;2023-03-14T08:17:10;8.20;99.90
25280;DHT22;13225;47.804;12.116;2023-03-14T08:19:36;8.20;99.90
25280;DHT22;13225;47.804;12.116;2023-03-14T08:22:01;8.20;99.90
25280;DHT22;13225;47.804;12.116;2023-03-14T08:24:27;8.20;99.90
25280;DHT22;13225;47.804;12.116;2023-03-14T08:26:53;8.20;99.90
25280;DHT22;13225;47.804;12.116;2023-03-14T08:29:19;8.20;99.90
25280;DHT22;13225;47.804;12.116;2023-03-14T08:31:44;8.20;99.90
25280;DHT22;13225;47.804;12.116;2023-03-14T08:34:10;8.20;99.90
25280;DHT22;13225;47.804;12.116;2023-03-14T08:36:36;8.20;99.90
25280;DHT22;13225;47.804;12.116;2023-03-14T08:39:01;8.20;99.90
25280;DHT22;13225;47.804;12.116;2023-03-14T08:41:29;8.20;99.90
25280;DHT22;13225;47.804;12.116;2023-03-14T08:43:54;8.30;99.90
25280;DHT22;13225;47.804;12.116;2023-03-14T08:46:20;8.30;99.90
25280;DHT22;13225;47.804;12.116;2023-03-14T08:48:46;8.30;99.90
25280;DHT22;13225;47.804;12.116;2023-03-14T08:51:13;8.30;99.90
25280;DHT22;13225;47.804;12.116;2023-03-14T08:53:39;8.30;99.90
25280;DHT22;13225;47.804;12.116;2023-03-14T08:56:06;8.30;99.90
25280;DHT22;13225;47.804;12.116;2023-03-14T08:58:33;8.40;99.90
25280;DHT22;13225;47.804;12.116;2023-03-14T09:00:58;8.40;99.90
25280;DHT22;13225;47.804;12.116;2023-03-14T09:03:25;8.40;99.90
25280;DHT22;13225;47.804;12.116;2023-03-14T09:05:51;8.40;99.90
25280;DHT22;13225;47.804;12.116;2023-03-14T09:08:17;8.50;99.90
25280;DHT22;13225;47.804;12.116;2023-03-14T09:10:43;8.50;99.90
25280;DHT22;13225;47.804;12.116;2023-03-14T09:13:09;8.60;99.90
25280;DHT22;13225;47.804;12.116;2023-03-14T09:15:34;8.60;99.90
25280;DHT22;13225;47.804;12.116;2023-03-14T09:18:00;8.50;99.90
25280;DHT22;13225;47.804;12.116;2023-03-14T09:20:25;8.50;99.90
25280;DHT22;13225;47.804;12.116;2023-03-14T09:22:51;8.50;99.90
25280;DHT22;13225;47.804;12.116;2023-03-14T09:25:16;8.50;99.90
25280;DHT22;13225;47.804;12.116;2023-03-14T09:27:42;8.60;99.90
25280;DHT22;13225;47.804;12.116;2023-03-14T09:30:08;8.60;99.90
25280;DHT22;13225;47.804;12.116;2023-03-14T09:32:34;8.50;99.90
25280;DHT22;13225;47.804;12.116;2023-03-14T09:35:00;8.50;99.90
25280;DHT22;13225;47.804;12.116;2023-03-14T09:37:26;8.40;99.90
25280;DHT22;13225;47.804;12.116;2023-03-14T09:39:51;8.30;99.90
25280;DHT22;13225;47.804;12.116;2023-03-14T09:42:19;8.30;99.90
25280;DHT22;13225;47.804;12.116;2023-03-14T09:44:57;8.20;99.90
25280;DHT22;13225;47.804;12.116;2023-03-14T09:47:25;8.30;99.90
25280;DHT22;13225;47.804;12.116;2023-03-14T09:49:51;8.30;99.90
25280;DHT22;13225;47.804;12.116;2023-03-14T09:52:32;8.20;99.90
25280;DHT22;13225;47.804;12.116;2023-03-14T09:55:04;8.30;99.90
25280;DHT22;13225;47.804;12.116;2023-03-14T09:57:32;8.30;99.90
25280;DHT22;13225;47.804;12.116;2023-03-14T10:00:15;8.50;99.90
25280;DHT22;13225;47.804;12.116;2023-03-14T10:02:55;8.50;99.90
25280;DHT22;13225;47.804;12.116;2023-03-14T10:05:23;8.50;99.90
25280;DHT22;13225;47.804;12.116;2023-03-14T10:07:49;8.60;99.90
25280;DHT22;13225;47.804;12.116;2023-03-14T10:10:23;8.60;99.90
25280;DHT22;13225;47.804;12.116;2023-03-14T10:13:22;8.70;99.90
25280;DHT22;13225;47.804;12.116;2023-03-14T10:16:15;8.80;99.90
25280;DHT22;13225;47.804;12.116;2023-03-14T10:18:45;8.80;99.90
25280;DHT22;13225;47.804;12.116;2023-03-14T10:21:28;8.90;99.90
25280;DHT22;13225;47.804;12.116;2023-03-14T10:23:54;9.00;99.90
25280;DHT22;13225;47.804;12.116;2023-03-14T10:26:29;9.10;99.90
25280;DHT22;13225;47.804;12.116;2023-03-14T10:29:08;9.20;99.90
25280;DHT22;13225;47.804;12.116;2023-03-14T10:31:47;9.20;99.90
25280;DHT22;13225;47.804;12.116;2023-03-14T10:34:20;9.00;99.90
25280;DHT22;13225;47.804;12.116;2023-03-14T10:36:46;8.90;99.90
25280;DHT22;13225;47.804;12.116;2023-03-14T10:39:41;8.80;99.90
25280;DHT22;13225;47.804;12.116;2023-03-14T10:42:28;8.80;99.90
25280;DHT22;13225;47.804;12.116;2023-03-14T10:45:04;8.60;99.90
25280;DHT22;13225;47.804;12.116;2023-03-14T10:47:33;8.60;99.90
25280;DHT22;13225;47.804;12.116;2023-03-14T10:50:22;8.50;99.90
25280;DHT22;13225;47.804;12.116;2023-03-14T10:52:49;8.50;99.90
25280;DHT22;13225;47.804;12.116;2023-03-14T10:55:16;8.50;99.90
25280;DHT22;13225;47.804;12.116;2023-03-14T10:57:42;8.50;99.90
25280;DHT22;13225;47.804;12.116;2023-03-14T11:00:22;8.30;99.90
25280;DHT22;13225;47.804;12.116;2023-03-14T11:05:33;8.30;99.90
25280;DHT22;13225;47.804;12.116;2023-03-14T11:08:19;8.30;99.90
25280;DHT22;13225;47.804;12.116;2023-03-14T11:10:49;8.30;99.90
25280;DHT22;13225;47.804;12.116;2023-03-14T11:16:08;8.50;99.90
25280;DHT22;13225;47.804;12.116;2023-03-14T11:21:35;8.70;99.90
25280;DHT22;13225;47.804;12.116;2023-03-14T11:29:41;9.00;99.90
25280;DHT22;13225;47.804;12.116;2023-03-14T11:32:19;8.90;99.90
25280;DHT22;13225;47.804;12.116;2023-03-14T11:34:52;9.20;99.90
25280;DHT22;13225;47.804;12.116;2023-03-14T11:37:40;9.30;99.90
25280;DHT22;13225;47.804;12.116;2023-03-14T11:40:25;9.80;99.90
25280;DHT22;13225;47.804;12.116;2023-03-14T11:43:11;10.10;99.90
25280;DHT22;13225;47.804;12.116;2023-03-14T11:45:42;9.90;99.90
25280;DHT22;13225;47.804;12.116;2023-03-14T11:50:55;10.00;99.90
25280;DHT22;13225;47.804;12.116;2023-03-14T11:55:55;10.80;99.90
25280;DHT22;13225;47.804;12.116;2023-03-14T11:58:27;10.80;99.90
25280;DHT22;13225;47.804;12.116;2023-03-14T12:00:55;11.10;99.90
25280;DHT22;13225;47.804;12.116;2023-03-14T12:09:04;11.30;99.90
25280;DHT22;13225;47.804;12.116;2023-03-14T12:11:34;11.60;99.90
25280;DHT22;13225;47.804;12.116;2023-03-14T12:14:01;11.40;99.90
25280;DHT22;13225;47.804;12.116;2023-03-14T12:16:36;11.60;99.90
25280;DHT22;13225;47.804;12.116;2023-03-14T12:19:26;11.50;99.90
25280;DHT22;13225;47.804;12.116;2023-03-14T12:21:57;11.60;99.90
25280;DHT22;13225;47.804;12.116;2023-03-14T12:24:27;11.80;99.90
25280;DHT22;13225;47.804;12.116;2023-03-14T12:26:56;11.60;99.90
25280;DHT22;13225;47.804;12.116;2023-03-14T12:29:22;11.50;99.90
25280;DHT22;13225;47.804;12.116;2023-03-14T12:32:21;11.40;99.90
25280;DHT22;13225;47.804;12.116;2023-03-14T12:34:48;11.50;99.90
25280;DHT22;13225;47.804;12.116;2023-03-14T12:45:32;11.40;99.90
25280;DHT22;13225;47.804;12.116;2023-03-14T12:58:50;11.50;99.90
25280;DHT22;13225;47.804;12.116;2023-03-14T13:01:20;11.80;99.90
25280;DHT22;13225;47.804;12.116;2023-03-14T13:03:57;11.90;99.90
25280;DHT22;13225;47.804;12.116;2023-03-14T13:06:50;11.80;99.90
25280;DHT22;13225;47.804;12.116;2023-03-14T13:12:11;11.20;99.90
25280;DHT22;13225;47.804;12.116;2023-03-14T13:14:45;11.30;99.90
25280;DHT22;13225;47.804;12.116;2023-03-14T13:17:13;11.10;99.90
25280;DHT22;13225;47.804;12.116;2023-03-14T13:19:40;11.10;99.90
25280;DHT22;13225;47.804;12.116;2023-03-14T13:22:24;11.30;99.90
25280;DHT22;13225;47.804;12.116;2023-03-14T13:25:01;11.30;99.90
25280;DHT22;13225;47.804;12.116;2023-03-14T13:27:30;11.20;99.90
25280;DHT22;13225;47.804;12.116;2023-03-14T13:29:57;11.00;99.90
25280;DHT22;13225;47.804;12.116;2023-03-14T13:32:27;10.70;99.90
25280;DHT22;13225;47.804;12.116;2023-03-14T13:34:59;10.50;99.90
25280;DHT22;13225;47.804;12.116;2023-03-14T13:37:26;10.40;99.90
25280;DHT22;13225;47.804;12.116;2023-03-14T13:39:53;10.30;99.90
25280;DHT22;13225;47.804;12.116;2023-03-14T13:42:21;10.10;99.90
25280;DHT22;13225;47.804;12.116;2023-03-14T13:44:52;10.00;99.90
25280;DHT22;13225;47.804;12.116;2023-03-14T13:47:20;9.90;99.90
25280;DHT22;13225;47.804;12.116;2023-03-14T13:49:47;9.90;99.90
25280;DHT22;13225;47.804;12.116;2023-03-14T13:52:31;9.90;99.90
25280;DHT22;13225;47.804;12.116;2023-03-14T13:54:57;10.10;99.90
25280;DHT22;13225;47.804;12.116;2023-03-14T13:57:24;10.10;99.90
25280;DHT22;13225;47.804;12.116;2023-03-14T14:00:03;10.10;99.90
25280;DHT22;13225;47.804;12.116;2023-03-14T14:02:36;10.10;99.90
25280;DHT22;13225;47.804;12.116;2023-03-14T14:05:03;10.20;99.90
25280;DHT22;13225;47.804;12.116;2023-03-14T14:07:29;10.20;99.90
25280;DHT22;13225;47.804;12.116;2023-03-14T14:09:55;10.10;99.90
25280;DHT22;13225;47.804;12.116;2023-03-14T14:12:31;10.10;99.90
25280;DHT22;13225;47.804;12.116;2023-03-14T14:15:02;10.10;99.90
25280;DHT22;13225;47.804;12.116;2023-03-14T14:17:41;10.30;99.90
25280;DHT22;13225;47.804;12.116;2023-03-14T14:20:20;10.20;99.90
25280;DHT22;13225;47.804;12.116;2023-03-14T14:22:46;10.30;99.90
25280;DHT22;13225;47.804;12.116;2023-03-14T14:25:13;10.30;99.90
25280;DHT22;13225;47.804;12.116;2023-03-14T14:27:44;10.30;99.90
25280;DHT22;13225;47.804;12.116;2023-03-14T14:32:43;10.00;99.90
25280;DHT22;13225;47.804;12.116;2023-03-14T14:35:22;9.90;99.90
25280;DHT22;13225;47.804;12.116;2023-03-14T14:37:48;9.90;99.90
25280;DHT22;13225;47.804;12.116;2023-03-14T14:40:20;9.90;99.90
25280;DHT22;13225;47.804;12.116;2023-03-14T14:42:47;9.90;99.90
25280;DHT22;13225;47.804;12.116;2023-03-14T14:45:23;9.90;99.90
25280;DHT22;13225;47.804;12.116;2023-03-14T14:50:33;9.80;99.90
25280;DHT22;13225;47.804;12.116;2023-03-14T14:53:18;9.80;99.90
25280;DHT22;13225;47.804;12.116;2023-03-14T14:55:45;9.80;99.90
25280;DHT22;13225;47.804;12.116;2023-03-14T14:58:18;9.60;99.90
25280;DHT22;13225;47.804;12.116;2023-03-14T15:03:35;9.10;99.90
25280;DHT22;13225;47.804;12.116;2023-03-14T15:06:02;8.90;99.90
25280;DHT22;13225;47.804;12.116;2023-03-14T15:08:28;8.60;99.90
25280;DHT22;13225;47.804;12.116;2023-03-14T15:10:58;8.30;99.90
25280;DHT22;13225;47.804;12.116;2023-03-14T15:13:24;8.10;99.90
25280;DHT22;13225;47.804;12.116;2023-03-14T15:15:50;8.00;99.90
25280;DHT22;13225;47.804;12.116;2023-03-14T15:18:24;7.80;99.90
25280;DHT22;13225;47.804;12.116;2023-03-14T15:20:50;7.80;99.90
25280;DHT22;13225;47.804;12.116;2023-03-14T15:23:19;7.70;99.90
25280;DHT22;13225;47.804;12.116;2023-03-14T15:25:45;7.60;99.90
25280;DHT22;13225;47.804;12.116;2023-03-14T15:28:27;7.60;99.90
25280;DHT22;13225;47.804;12.116;2023-03-14T15:30:55;7.70;99.90
25280;DHT22;13225;47.804;12.116;2023-03-14T15:33:21;7.70;99.90
25280;DHT22;13225;47.804;12.116;2023-03-14T15:35:47;7.80;99.90
25280;DHT22;13225;47.804;12.116;2023-03-14T15:38:17;7.90;99.90
25280;DHT22;13225;47.804;12.116;2023-03-14T15:40:45;8.00;99.90
25280;DHT22;13225;47.804;12.116;2023-03-14T15:43:10;8.00;99.90
25280;DHT22;13225;47.804;12.116;2023-03-14T15:45:36;7.90;99.90
25280;DHT22;13225;47.804;12.116;2023-03-14T15:48:01;8.10;99.90
25280;DHT22;13225;47.804;12.116;2023-03-14T15:50:27;8.10;99.90
25280;DHT22;13225;47.804;12.116;2023-03-14T15:52:53;8.20;99.90
25280;DHT22;13225;47.804;12.116;2023-03-14T15:55:19;8.40;99.90
25280;DHT22;13225;47.804;12.116;2023-03-14T15:57:45;8.50;99.90
25280;DHT22;13225;47.804;12.116;2023-03-14T16:00:13;8.60;99.90
25280;DHT22;13225;47.804;12.116;2023-03-14T16:02:40;8.80;99.90
25280;DHT22;13225;47.804;12.116;2023-03-14T16:05:10;9.20;99.90
25280;DHT22;13225;47.804;12.116;2023-03-14T16:07:36;9.40;99.90
25280;DHT22;13225;47.804;12.116;2023-03-14T16:10:02;9.50;99.90
25280;DHT22;13225;47.804;12.116;2023-03-14T16:12:29;9.30;99.90
25280;DHT22;13225;47.804;12.116;2023-03-14T16:14:54;9.00;99.90
25280;DHT22;13225;47.804;12.116;2023-03-14T16:17:20;8.80;99.90
25280;DHT22;13225;47.804;12.116;2023-03-14T16:19:45;8.70;99.90
25280;DHT22;13225;47.804;12.116;2023-03-14T16:22:12;8.30;99.90
25280;DHT22;13225;47.804;12.116;2023-03-14T16:24:37;7.40;99.90
25280;DHT22;13225;47.804;12.116;2023-03-14T16:27:03;7.20;99.90
25280;DHT22;13225;47.804;12.116;2023-03-14T16:29:29;7.20;99.90
25280;DHT22;13225;47.804;12.116;2023-03-14T16:31:55;7.20;99.90
25280;DHT22;13225;47.804;12.116;2023-03-14T16:34:21;7.10;99.90
25280;DHT22;13225;47.804;12.116;2023-03-14T16:36:46;7.20;99.90